Time;durP1;ratioP1;P1;durP2;ratioP2;P2;SDS_P1;SDS_P2;PMS_P1;PMS_P2;Temp;Humidity;BMP_temperature;BMP_pressure;BME280_temperature;BME280_humidity;BME280_pressure;Samples;Min_cycle;Max_cycle;Signal;HPM_P1;HPM_P2
2022/08/15 00:01:42;;;;;;;13.27;10.77;;;21.10;99.90;;;;;;5049462;28;20131;-77
2022/08/15 00:04:14;;;;;;;14.10;9.43;;;21.10;99.90;;;;;;5049255;28;20064;-77
2022/08/15 00:06:49;;;;;;;11.98;9.50;;;20.90;99.90;;;;;;5037562;28;20041;-76
2022/08/15 00:09:22;;;;;;;13.27;10.60;;;21.20;99.90;;;;;;5048899;28;20086;-76
2022/08/15 00:12:03;;;;;;;15.65;10.73;;;21.20;99.90;;;;;;5049059;28;20569;-76
2022/08/15 00:14:37;;;;;;;;;;;21.10;99.90;;;;;;5049599;28;20040;-77
2022/08/15 00:17:12;;;;;;;17.70;10.20;;;21.10;99.90;;;;;;5047020;28;19995;-76
2022/08/15 00:19:44;;;;;;;15.55;10.82;;;21.00;99.90;;;;;;5038537;28;20050;-76
2022/08/15 00:22:31;;;;;;;17.73;10.43;;;21.00;99.90;;;;;;5049211;28;20041;-76
2022/08/15 00:25:09;;;;;;;13.50;9.25;;;21.00;99.90;;;;;;5049188;28;20067;-76
2022/08/15 00:27:38;;;;;;;13.13;11.00;;;20.90;99.90;;;;;;5038326;28;20047;-76
2022/08/15 00:30:13;;;;;;;13.82;10.02;;;21.00;99.90;;;;;;5031230;28;20046;-76
2022/08/15 00:32:52;;;;;;;24.55;11.13;;;20.90;99.90;;;;;;5037957;28;20126;-76
2022/08/15 00:35:36;;;;;;;15.15;9.65;;;20.90;99.90;;;;;;5030996;28;20048;-77
2022/08/15 00:38:29;;;;;;;17.17;10.75;;;20.80;99.90;;;;;;5032528;28;20037;-75
2022/08/15 00:44:14;;;;;;;15.98;10.63;;;20.80;99.90;;;;;;5049241;28;20502;-77
2022/08/15 00:46:53;;;;;;;18.23;10.93;;;20.80;99.90;;;;;;5050481;28;20065;-76
2022/08/15 00:49:31;;;;;;;15.75;10.30;;;20.70;99.90;;;;;;5048967;28;20059;-76
2022/08/15 00:52:33;;;;;;;14.57;10.23;;;20.70;99.90;;;;;;5038175;28;20053;-76
2022/08/15 00:55:19;;;;;;;19.83;10.38;;;20.60;99.90;;;;;;5030526;28;20569;-77
2022/08/15 00:57:50;;;;;;;13.05;9.55;;;20.60;99.90;;;;;;5036448;28;20152;-77
2022/08/15 01:00:29;;;;;;;17.15;10.68;;;20.90;99.90;;;;;;5054312;28;20148;-76
2022/08/15 01:03:00;;;;;;;11.70;9.80;;;20.60;99.90;;;;;;5030755;28;20514;-76
2022/08/15 01:05:31;;;;;;;16.58;11.38;;;20.60;99.90;;;;;;5036080;28;20045;-77
2022/08/15 01:08:00;;;;;;;17.10;11.70;;;20.70;99.90;;;;;;5029014;28;20119;-76
2022/08/15 01:10:26;;;;;;;14.10;10.45;;;20.60;99.90;;;;;;5063332;28;20587;-76
2022/08/15 01:13:01;;;;;;;12.05;9.65;;;20.50;99.90;;;;;;5031786;28;20042;-76
2022/08/15 01:15:36;;;;;;;17.38;10.27;;;20.50;99.90;;;;;;5037369;28;20049;-76
2022/08/15 01:18:07;;;;;;;14.52;10.23;;;20.40;99.90;;;;;;5029606;28;20169;-76
2022/08/15 01:20:40;;;;;;;15.27;10.10;;;20.50;99.90;;;;;;5049718;28;20095;-77
2022/08/15 01:23:30;;;;;;;12.95;10.18;;;20.50;99.90;;;;;;5048053;28;20049;-77
2022/08/15 01:26:12;;;;;;;14.02;9.43;;;20.50;99.90;;;;;;5037622;28;20128;-77
2022/08/15 01:28:48;;;;;;;;;;;20.70;99.90;;;;;;5038285;28;20046;-76
2022/08/15 01:31:25;;;;;;;11.85;8.65;;;20.40;99.90;;;;;;5030752;28;19921;-76
2022/08/15 01:33:58;;;;;;;15.25;10.07;;;20.40;99.90;;;;;;5028534;28;20721;-76
2022/08/15 01:36:31;;;;;;;13.70;8.73;;;20.30;99.90;;;;;;5025561;28;20045;-76
2022/08/15 01:39:16;;;;;;;14.52;9.20;;;20.40;99.90;;;;;;5027408;28;20099;-77
2022/08/15 01:41:46;;;;;;;12.50;9.63;;;20.30;99.90;;;;;;5026952;28;20041;-77
2022/08/15 01:44:53;;;;;;;13.77;8.90;;;20.30;99.90;;;;;;5025609;28;21026;-76
2022/08/15 01:47:23;;;;;;;22.10;10.45;;;20.30;99.90;;;;;;5027801;28;20111;-76
2022/08/15 01:50:42;;;;;;;15.30;9.45;;;20.30;99.90;;;;;;5059090;28;20507;-76
2022/08/15 01:53:42;;;;;;;13.45;9.98;;;20.30;99.90;;;;;;4991106;28;20046;-76
2022/08/15 01:56:27;;;;;;;11.48;9.18;;;20.00;99.90;;;;;;5013438;28;20050;-77
2022/08/15 01:58:53;;;;;;;13.43;9.77;;;20.20;99.90;;;;;;5024062;28;20041;-76
2022/08/15 02:01:42;;;;;;;11.82;9.00;;;20.10;99.90;;;;;;5025898;28;20053;-76
2022/08/15 02:04:43;;;;;;;;;;;;;;;;;;;;;
2022/08/15 02:07:18;;;;;;;17.15;9.18;;;20.20;99.90;;;;;;5025319;28;46310;-76
2022/08/15 02:09:54;;;;;;;10.85;8.32;;;20.20;99.90;;;;;;5023834;28;20131;-76
2022/08/15 02:12:37;;;;;;;12.45;9.30;;;20.10;99.90;;;;;;5023660;28;20041;-76
2022/08/15 02:15:26;;;;;;;12.25;8.43;;;20.00;99.90;;;;;;5025940;28;21235;-77
2022/08/15 02:17:57;;;;;;;11.98;8.70;;;20.10;99.90;;;;;;5039487;28;20061;-76
2022/08/15 02:20:26;;;;;;;13.65;8.35;;;20.10;99.90;;;;;;5056039;28;20629;-76
2022/08/15 02:22:57;;;;;;;12.40;8.60;;;20.10;99.90;;;;;;5041719;28;20049;-76
2022/08/15 02:25:26;;;;;;;;;;;20.00;99.90;;;;;;5025185;28;20045;-76
2022/08/15 02:28:01;;;;;;;10.85;8.00;;;20.10;99.90;;;;;;5024233;28;19925;-77
2022/08/15 02:30:28;;;;;;;13.98;8.07;;;20.00;99.90;;;;;;5023812;28;20502;-77
2022/08/15 02:33:07;;;;;;;11.10;8.38;;;19.90;99.90;;;;;;5025277;28;20236;-77
2022/08/15 02:35:46;;;;;;;11.82;8.40;;;19.90;99.90;;;;;;5036759;28;20041;-76
2022/08/15 02:38:27;;;;;;;12.88;7.70;;;19.90;99.90;;;;;;5036687;28;20053;-76
2022/08/15 02:40:57;;;;;;;15.13;8.35;;;19.90;99.90;;;;;;5047608;28;20044;-76
2022/08/15 02:43:29;;;;;;;11.27;7.32;;;19.90;99.90;;;;;;5036475;28;20048;-77
2022/08/15 02:46:00;;;;;;;;;;;20.10;99.90;;;;;;5047746;28;20068;-78
2022/08/15 02:48:36;;;;;;;11.68;8.18;;;19.50;99.90;;;;;;5047128;28;19968;-77
2022/08/15 02:51:07;;;;;;;14.32;7.50;;;19.80;99.90;;;;;;5036461;28;20638;-77
2022/08/15 02:53:44;;;;;;;10.80;7.50;;;19.80;99.90;;;;;;5061989;28;20038;-76
2022/08/15 02:56:22;;;;;;;13.48;7.47;;;19.80;99.90;;;;;;5047542;28;20049;-77
2022/08/15 02:58:50;;;;;;;14.07;7.15;;;19.90;99.90;;;;;;5047169;28;20079;-77
2022/08/15 03:01:18;;;;;;;10.90;7.82;;;19.80;99.90;;;;;;5027214;28;20478;-77
2022/08/15 03:03:49;;;;;;;10.68;7.80;;;19.50;99.90;;;;;;5029643;28;20037;-77
2022/08/15 03:06:20;;;;;;;10.25;6.82;;;19.70;99.90;;;;;;5035476;28;20569;-77
2022/08/15 03:08:45;;;;;;;14.13;7.72;;;19.70;99.90;;;;;;5029753;28;20041;-77
2022/08/15 03:11:20;;;;;;;13.02;7.40;;;19.70;99.90;;;;;;5029547;28;20042;-78
2022/08/15 03:13:51;;;;;;;8.98;7.38;;;19.60;99.90;;;;;;5065929;28;20124;-77
2022/08/15 03:16:31;;;;;;;12.77;7.18;;;19.70;99.90;;;;;;5039845;28;20680;-76
2022/08/15 03:19:02;;;;;;;9.35;6.13;;;19.70;99.90;;;;;;5017729;28;20973;-77
2022/08/15 03:21:30;;;;;;;15.13;7.90;;;19.70;99.90;;;;;;5050633;28;20535;-77
2022/08/15 03:23:59;;;;;;;10.60;6.28;;;19.70;99.90;;;;;;5051575;28;20047;-77
2022/08/15 03:26:34;;;;;;;8.70;6.75;;;19.60;99.90;;;;;;5050042;28;20045;-77
2022/08/15 03:29:09;;;;;;;10.63;6.35;;;19.70;99.90;;;;;;5050407;28;20049;-77
2022/08/15 03:31:39;;;;;;;10.13;6.90;;;20.00;99.90;;;;;;5039324;28;20594;-77
2022/08/15 03:34:08;;;;;;;10.10;6.72;;;19.60;99.90;;;;;;5054531;28;20500;-77
2022/08/15 03:36:45;;;;;;;11.70;6.75;;;19.60;99.90;;;;;;5050048;28;20068;-77
2022/08/15 03:39:12;;;;;;;12.00;6.35;;;19.50;99.90;;;;;;5031874;28;20057;-77
2022/08/15 03:41:46;;;;;;;12.18;7.70;;;19.50;99.90;;;;;;5050664;28;20048;-77
2022/08/15 03:44:18;;;;;;;8.65;6.70;;;19.50;99.90;;;;;;5050164;28;20113;-76
2022/08/15 03:46:46;;;;;;;8.95;6.72;;;19.50;99.90;;;;;;5064594;28;20063;-77
2022/08/15 03:49:22;;;;;;;9.65;6.93;;;19.50;99.90;;;;;;5050066;28;20095;-76
2022/08/15 03:51:50;;;;;;;7.90;6.15;;;19.50;99.90;;;;;;5050194;28;20047;-77
2022/08/15 03:54:21;;;;;;;9.48;6.45;;;19.50;99.90;;;;;;5039102;28;20563;-77
2022/08/15 03:56:57;;;;;;;11.30;6.53;;;19.40;99.90;;;;;;5038561;28;20044;-78
2022/08/15 03:59:35;;;;;;;9.07;6.13;;;19.20;99.90;;;;;;5037388;28;20100;-81
2022/08/15 04:02:07;;;;;;;10.80;6.38;;;19.30;99.90;;;;;;5040715;28;20156;-75
2022/08/15 04:04:35;;;;;;;;;;;19.40;99.90;;;;;;5052747;28;20040;-76
2022/08/15 04:07:04;;;;;;;8.45;7.25;;;20.00;99.90;;;;;;5032631;28;20694;-77
2022/08/15 04:09:32;;;;;;;8.98;7.85;;;19.40;99.90;;;;;;5064664;28;20049;-76
2022/08/15 04:12:04;;;;;;;13.75;7.00;;;19.40;99.90;;;;;;5031443;28;20045;-77
2022/08/15 04:14:30;;;;;;;10.60;6.65;;;19.40;99.90;;;;;;5050045;28;20045;-76
2022/08/15 04:17:04;;;;;;;9.63;6.57;;;19.40;99.90;;;;;;5022355;28;20083;-76
2022/08/15 04:19:46;;;;;;;;;;;;;;;;;;;;;
2022/08/15 04:22:29;;;;;;;12.48;6.93;;;19.40;99.90;;;;;;5048687;28;43612;-76
2022/08/15 04:25:06;;;;;;;12.50;7.00;;;19.40;99.90;;;;;;5032439;28;20041;-76
2022/08/15 04:27:59;;;;;;;9.40;7.35;;;19.20;99.90;;;;;;5049579;28;20042;-77
2022/08/15 04:30:34;;;;;;;9.77;6.32;;;19.30;99.90;;;;;;5045830;28;20107;-76
2022/08/15 04:33:14;;;;;;;9.68;6.68;;;19.50;99.90;;;;;;5063917;28;20043;-76
2022/08/15 04:35:55;;;;;;;14.52;6.97;;;19.60;99.90;;;;;;5049419;28;20064;-77
2022/08/15 04:38:24;;;;;;;9.48;6.18;;;19.20;99.90;;;;;;5053869;28;20053;-77
2022/08/15 04:40:57;;;;;;;7.32;5.82;;;19.20;99.90;;;;;;5063481;28;20409;-76
2022/08/15 04:43:28;;;;;;;8.35;5.53;;;19.20;99.90;;;;;;5030335;28;20098;-76
2022/08/15 04:46:08;;;;;;;12.75;6.75;;;19.20;99.90;;;;;;5031862;28;20037;-77
2022/08/15 04:48:42;;;;;;;13.15;7.18;;;19.20;99.90;;;;;;5049137;28;20098;-77
2022/08/15 04:51:27;;;;;;;10.27;6.10;;;19.60;99.90;;;;;;5055736;28;20053;-75
2022/08/15 04:53:55;;;;;;;11.27;6.60;;;19.20;99.90;;;;;;5038692;28;20037;-76
2022/08/15 04:56:24;;;;;;;9.52;7.75;;;19.20;99.90;;;;;;5049113;28;20571;-76
2022/08/15 04:58:53;;;;;;;8.50;6.13;;;19.20;99.90;;;;;;5030980;28;20095;-75
2022/08/15 05:01:27;;;;;;;10.98;6.85;;;19.10;99.90;;;;;;5030315;28;20127;-78
2022/08/15 05:03:58;;;;;;;10.18;6.43;;;19.20;99.90;;;;;;5037930;28;20536;-77
2022/08/15 05:06:34;;;;;;;11.60;6.57;;;19.10;99.90;;;;;;5049286;28;20132;-77
2022/08/15 05:09:05;;;;;;;9.18;5.65;;;19.20;99.90;;;;;;5048887;28;20092;-76
2022/08/15 05:11:34;;;;;;;10.18;6.60;;;19.10;99.90;;;;;;5029183;28;20061;-76
2022/08/15 05:14:00;;;;;;;14.75;6.80;;;19.10;99.90;;;;;;5063312;28;20099;-76
2022/08/15 05:16:27;;;;;;;11.70;7.53;;;19.20;99.90;;;;;;5030604;28;20069;-77
2022/08/15 05:18:57;;;;;;;9.07;5.50;;;19.20;99.90;;;;;;5037676;28;20060;-76
2022/08/15 05:21:33;;;;;;;13.90;6.60;;;19.20;99.90;;;;;;5048901;28;20045;-76
2022/08/15 05:24:05;;;;;;;10.77;6.45;;;19.20;99.90;;;;;;5048483;28;20053;-76
2022/08/15 05:26:33;;;;;;;13.63;7.03;;;19.40;99.90;;;;;;5048604;28;20041;-76
2022/08/15 05:29:21;;;;;;;12.30;6.88;;;19.20;99.90;;;;;;5048448;28;20579;-76
2022/08/15 05:31:53;;;;;;;13.52;7.15;;;19.10;99.90;;;;;;5049070;28;20535;-74
2022/08/15 05:34:32;;;;;;;11.40;7.53;;;19.20;99.90;;;;;;5048080;28;20053;-75
2022/08/15 05:37:01;;;;;;;10.07;6.53;;;19.20;99.90;;;;;;5063608;28;20041;-75
2022/08/15 05:39:33;;;;;;;7.90;6.78;;;19.20;99.90;;;;;;5047696;28;20048;-75
2022/08/15 05:42:11;;;;;;;;;;;19.20;99.90;;;;;;5037681;28;20056;-76
2022/08/15 05:45:41;;;;;;;8.82;6.20;;;19.10;99.90;;;;;;5030702;28;20456;-77
2022/08/15 05:48:24;;;;;;;16.13;6.63;;;19.30;99.90;;;;;;4974655;28;20101;-76
2022/08/15 05:51:05;;;;;;;12.77;7.30;;;19.10;99.90;;;;;;4974741;28;20046;-76
2022/08/15 05:53:45;;;;;;;12.05;7.55;;;19.20;99.90;;;;;;5014023;28;20049;-77
2022/08/15 05:56:37;;;;;;;10.40;7.53;;;19.20;99.90;;;;;;5048859;28;20042;-76
2022/08/15 05:59:16;;;;;;;13.07;6.32;;;19.20;99.90;;;;;;5047724;28;20041;-76
2022/08/15 06:01:51;;;;;;;11.48;6.80;;;19.20;99.90;;;;;;5047493;28;20486;-76
2022/08/15 06:04:33;;;;;;;13.05;6.70;;;19.20;99.90;;;;;;5062461;28;20060;-76
2022/08/15 06:07:32;;;;;;;11.60;7.20;;;19.20;99.90;;;;;;5052493;28;20532;-77
2022/08/15 06:10:26;;;;;;;12.75;6.97;;;19.20;99.90;;;;;;5025912;28;20567;-76
2022/08/15 06:13:16;;;;;;;11.40;6.38;;;19.30;99.90;;;;;;5034787;28;20103;-76
2022/08/15 06:15:54;;;;;;;11.27;7.07;;;19.30;99.90;;;;;;5046025;28;20053;-77
2022/08/15 06:18:26;;;;;;;8.23;6.25;;;19.30;99.90;;;;;;5046595;28;20045;-76
2022/08/15 06:20:57;;;;;;;;;;;19.30;99.90;;;;;;5049093;28;20033;-76
2022/08/15 06:23:35;;;;;;;9.33;6.23;;;19.50;99.90;;;;;;5047571;28;19921;-77
2022/08/15 06:26:24;;;;;;;10.23;6.47;;;19.60;99.90;;;;;;5047344;28;20784;-77
2022/08/15 06:29:11;;;;;;;11.77;7.50;;;19.70;99.90;;;;;;5061529;28;20106;-76
2022/08/15 06:32:11;;;;;;;12.20;6.68;;;19.90;99.90;;;;;;5061520;28;20119;-78
2022/08/15 06:35:13;;;;;;;10.63;5.57;;;20.00;99.90;;;;;;5034768;28;20096;-77
2022/08/15 06:38:14;;;;;;;12.10;6.38;;;20.00;99.90;;;;;;5032938;28;20072;-77
2022/08/15 06:41:08;;;;;;;10.43;6.60;;;19.90;99.90;;;;;;5036990;28;20037;-75
2022/08/15 06:43:41;;;;;;;9.60;5.50;;;20.10;99.90;;;;;;5042862;28;20045;-76
2022/08/15 06:46:07;;;;;;;16.65;6.97;;;19.80;99.90;;;;;;5035616;28;20037;-77
2022/08/15 06:48:41;;;;;;;7.75;5.97;;;20.30;99.90;;;;;;5036166;28;20065;-77
2022/08/15 06:51:09;;;;;;;11.70;6.13;;;20.30;99.90;;;;;;5029723;28;20041;-77
2022/08/15 06:53:45;;;;;;;8.15;5.55;;;20.30;99.90;;;;;;5029907;28;20123;-77
2022/08/15 06:56:32;;;;;;;10.35;6.35;;;20.30;99.90;;;;;;5037173;28;20049;-77
2022/08/15 06:59:13;;;;;;;8.65;6.20;;;20.40;99.90;;;;;;5062937;28;20050;-77
2022/08/15 07:01:59;;;;;;;9.15;5.45;;;20.30;99.90;;;;;;5047108;28;20046;-76
2022/08/15 07:04:50;;;;;;;8.73;5.20;;;20.40;99.90;;;;;;5036704;28;20068;-77
2022/08/15 07:07:38;;;;;;;9.75;6.72;;;20.30;99.90;;;;;;5061486;28;20128;-76
2022/08/15 07:10:26;;;;;;;11.90;6.80;;;20.30;99.90;;;;;;5059476;28;20126;-77
2022/08/15 07:13:18;;;;;;;13.60;6.55;;;20.20;99.90;;;;;;5035606;28;20126;-77
2022/08/15 07:16:26;;;;;;;11.30;5.72;;;20.00;99.90;;;;;;5035147;28;20049;-76
2022/08/15 07:19:01;;;;;;;10.98;6.93;;;20.40;99.90;;;;;;5019857;28;20049;-77
2022/08/15 07:21:37;;;;;;;14.57;7.22;;;20.40;99.90;;;;;;5035052;28;20057;-77
2022/08/15 07:24:16;;;;;;;10.88;6.43;;;20.40;99.90;;;;;;5045126;28;20535;-77
2022/08/15 07:30:44;;;;;;;11.75;6.95;;;20.50;99.90;;;;;;5046286;28;20049;-78
2022/08/15 07:33:37;;;;;;;9.65;6.95;;;20.30;99.90;;;;;;5060839;28;20053;-74
2022/08/15 07:36:27;;;;;;;11.55;7.53;;;20.60;99.90;;;;;;5038081;28;20045;-75
2022/08/15 07:39:19;;;;;;;13.80;6.60;;;20.50;99.90;;;;;;5048023;28;20913;-75
2022/08/15 07:42:00;;;;;;;;;;;20.60;99.90;;;;;;5062543;28;20041;-77
2022/08/15 07:44:36;;;;;;;10.43;7.10;;;20.70;99.90;;;;;;5050256;28;19925;-75
2022/08/15 07:47:30;;;;;;;12.85;6.90;;;20.60;99.90;;;;;;5030131;28;20046;-77
2022/08/15 07:50:11;;;;;;;12.13;7.00;;;20.70;99.90;;;;;;5030177;28;20046;-76
2022/08/15 07:52:41;;;;;;;9.57;7.72;;;20.70;99.90;;;;;;5035659;28;20451;-76
2022/08/15 07:55:29;;;;;;;12.13;6.25;;;20.70;99.90;;;;;;5027829;28;20130;-74
2022/08/15 07:58:09;;;;;;;10.52;6.80;;;20.50;99.90;;;;;;5045742;28;20513;-74
2022/08/15 08:00:44;;;;;;;9.73;6.15;;;20.50;99.90;;;;;;5038042;28;20506;-74
2022/08/15 08:03:25;;;;;;;8.35;6.57;;;20.80;99.90;;;;;;5036862;28;20076;-74
2022/08/15 08:05:56;;;;;;;8.77;5.88;;;21.00;99.90;;;;;;5049576;28;20052;-75
2022/08/15 08:09:09;;;;;;;8.93;4.60;;;20.80;99.90;;;;;;5030222;28;20554;-74
2022/08/15 08:11:55;;;;;;;8.13;4.70;;;20.80;99.90;;;;;;4958650;28;20046;-74
2022/08/15 08:14:30;;;;;;;9.80;6.10;;;20.80;99.90;;;;;;4975682;28;20567;-74
2022/08/15 08:17:39;;;;;;;7.72;5.45;;;20.80;99.90;;;;;;4975151;28;20098;-74
2022/08/15 08:20:43;;;;;;;9.02;5.65;;;20.90;99.90;;;;;;4916737;28;20269;-74
2022/08/15 08:23:48;;;;;;;12.40;7.95;;;20.90;99.90;;;;;;4974396;28;20433;-74
2022/08/15 08:26:55;;;;;;;13.18;8.02;;;20.90;99.90;;;;;;5031044;28;20124;-74
2022/08/15 08:29:47;;;;;;;12.40;7.95;;;20.90;99.90;;;;;;5037150;28;20088;-74
2022/08/15 08:32:55;;;;;;;11.18;8.45;;;21.00;99.90;;;;;;5038290;28;20529;-74
2022/08/15 08:35:44;;;;;;;12.82;8.05;;;21.10;99.90;;;;;;5063408;28;20558;-74
2022/08/15 08:38:29;;;;;;;10.38;5.45;;;21.20;99.90;;;;;;5037663;28;20553;-74
2022/08/15 08:41:28;;;;;;;6.95;4.43;;;21.40;99.90;;;;;;5048789;28;20056;-74
2022/08/15 08:44:24;;;;;;;5.57;4.18;;;21.40;99.90;;;;;;5062573;28;20083;-74
2022/08/15 08:47:33;;;;;;;5.75;4.90;;;21.50;99.90;;;;;;5037094;28;20203;-74
2022/08/15 08:50:38;;;;;;;6.65;4.93;;;21.40;99.90;;;;;;5039819;28;20100;-74
2022/08/15 08:53:22;;;;;;;6.25;5.40;;;21.20;99.90;;;;;;5062785;28;20053;-74
2022/08/15 08:55:52;;;;;;;9.13;5.40;;;21.00;99.90;;;;;;5036198;28;20099;-74
2022/08/15 08:58:28;;;;;;;8.38;6.63;;;20.90;99.90;;;;;;5037844;28;20041;-74
2022/08/15 09:00:55;;;;;;;8.02;5.57;;;20.90;99.90;;;;;;5055301;28;21287;-74
2022/08/15 09:03:29;;;;;;;7.40;6.18;;;20.80;99.90;;;;;;5038054;28;20041;-74
2022/08/15 09:05:57;;;;;;;8.02;5.95;;;20.80;99.90;;;;;;5031738;28;20029;-75
2022/08/15 09:08:36;;;;;;;10.30;7.35;;;20.80;99.90;;;;;;5038043;28;20037;-74
2022/08/15 09:11:07;;;;;;;7.35;5.93;;;20.80;99.90;;;;;;5038404;28;20968;-74
2022/08/15 09:13:38;;;;;;;7.85;5.88;;;21.00;99.90;;;;;;5046498;28;20045;-74
2022/08/15 09:16:10;;;;;;;6.72;5.15;;;21.10;99.90;;;;;;5054854;28;20044;-74
2022/08/15 09:19:06;;;;;;;6.35;5.05;;;21.30;99.90;;;;;;5030505;28;20583;-74
2022/08/15 09:21:35;;;;;;;8.13;5.45;;;21.50;99.90;;;;;;5030812;28;20549;-74
2022/08/15 09:24:01;;;;;;;7.43;4.88;;;21.60;99.90;;;;;;5053981;28;20053;-74
2022/08/15 09:26:55;;;;;;;7.22;4.93;;;21.40;99.90;;;;;;5036916;28;20037;-74
2022/08/15 09:29:34;;;;;;;8.60;4.63;;;21.60;99.90;;;;;;5062736;28;20045;-74
2022/08/15 09:32:24;;;;;;;7.53;4.25;;;21.70;99.90;;;;;;5036641;28;20042;-74
2022/08/15 09:34:56;;;;;;;7.13;5.18;;;21.90;99.90;;;;;;5060647;28;20164;-74
2022/08/15 09:37:42;;;;;;;;;;;21.90;99.90;;;;;;5028404;28;20046;-74
2022/08/15 09:40:29;;;;;;;7.95;4.55;;;21.90;99.90;;;;;;5033421;28;19921;-75
2022/08/15 09:43:15;;;;;;;5.28;4.20;;;21.80;99.90;;;;;;5026867;28;20045;-75
2022/08/15 09:46:04;;;;;;;7.30;4.57;;;21.70;99.90;;;;;;5025673;28;20092;-75
2022/08/15 09:48:50;;;;;;;9.80;4.82;;;21.60;99.90;;;;;;5059057;28;20045;-74
2022/08/15 09:51:25;;;;;;;8.93;5.35;;;21.70;99.90;;;;;;5026857;28;20108;-74
2022/08/15 09:54:18;;;;;;;8.88;4.50;;;21.70;99.90;;;;;;5027105;28;20657;-74
2022/08/15 09:56:44;;;;;;;4.57;3.72;;;21.90;99.90;;;;;;5027274;28;20049;-74
2022/08/15 09:59:19;;;;;;;6.25;4.15;;;22.40;99.90;;;;;;5058896;28;20045;-74
2022/08/15 10:01:50;;;;;;;4.70;3.65;;;22.40;99.90;;;;;;5058246;28;20041;-74
2022/08/15 10:04:23;;;;;;;6.50;3.42;;;22.40;99.90;;;;;;5049667;28;20040;-74
2022/08/15 10:07:01;;;;;;;5.22;3.45;;;22.40;99.90;;;;;;5031675;28;20054;-74
2022/08/15 10:09:35;;;;;;;7.28;3.58;;;22.40;99.90;;;;;;5027017;28;20048;-75
2022/08/15 10:12:07;;;;;;;5.55;3.88;;;22.40;99.90;;;;;;5027398;28;20046;-74
2022/08/15 10:15:02;;;;;;;4.75;3.60;;;22.40;99.90;;;;;;5026177;28;20049;-74
2022/08/15 10:17:37;;;;;;;4.65;3.33;;;22.30;99.90;;;;;;5032441;28;20053;-74
2022/08/15 10:20:15;;;;;;;5.57;3.47;;;22.20;99.90;;;;;;5027394;28;20053;-74
2022/08/15 10:22:59;;;;;;;5.22;3.78;;;22.30;99.90;;;;;;5039810;28;20053;-74
2022/08/15 10:25:36;;;;;;;6.55;3.50;;;22.50;99.90;;;;;;5026763;28;20038;-74
2022/08/15 10:28:05;;;;;;;8.50;3.50;;;22.60;99.90;;;;;;5032786;28;20049;-74
2022/08/15 10:30:45;;;;;;;5.90;3.33;;;22.70;99.90;;;;;;5059054;28;20661;-74
2022/08/15 10:33:26;;;;;;;6.03;3.65;;;22.80;99.90;;;;;;5033135;28;20053;-74
2022/08/15 10:35:55;;;;;;;5.60;3.80;;;22.80;99.90;;;;;;5035659;28;20051;-74
2022/08/15 10:38:28;;;;;;;5.43;3.30;;;22.90;99.90;;;;;;5027961;28;20045;-74
2022/08/15 10:40:57;;;;;;;6.07;3.40;;;22.90;99.90;;;;;;5028880;28;20623;-74
2022/08/15 10:43:22;;;;;;;6.07;3.50;;;22.90;99.90;;;;;;5035449;28;20045;-75
2022/08/15 10:46:04;;;;;;;7.53;4.00;;;22.80;99.90;;;;;;5029710;28;20037;-74
2022/08/15 10:48:42;;;;;;;5.90;3.22;;;22.70;99.90;;;;;;5047585;28;20049;-74
2022/08/15 10:51:26;;;;;;;5.32;3.30;;;22.70;99.90;;;;;;5062060;28;20135;-74
2022/08/15 10:53:58;;;;;;;7.47;3.58;;;22.80;99.90;;;;;;5030326;28;20405;-74
2022/08/15 10:56:27;;;;;;;8.35;3.28;;;22.80;99.90;;;;;;5035040;28;20038;-74
2022/08/15 10:59:08;;;;;;;6.22;3.08;;;23.00;99.90;;;;;;5028569;28;20045;-75
2022/08/15 11:01:36;;;;;;;5.05;3.10;;;23.10;99.90;;;;;;5060990;28;20092;-75
2022/08/15 11:04:26;;;;;;;5.82;3.50;;;23.20;99.90;;;;;;5046947;28;20056;-74
2022/08/15 11:06:53;;;;;;;5.70;3.78;;;23.40;99.90;;;;;;5046153;28;20041;-74
2022/08/15 11:09:21;;;;;;;7.47;3.30;;;23.40;99.90;;;;;;5047771;28;20184;-74
2022/08/15 11:11:57;;;;;;;5.53;3.67;;;23.40;99.90;;;;;;5046638;28;20042;-74
2022/08/15 11:14:41;;;;;;;3.92;3.33;;;23.40;99.90;;;;;;5047726;28;20532;-74
2022/08/15 11:17:18;;;;;;;5.97;3.30;;;23.40;99.90;;;;;;5047251;28;20122;-74
2022/08/15 11:19:51;;;;;;;7.10;4.10;;;23.40;99.90;;;;;;5047453;28;20059;-74
2022/08/15 11:22:35;;;;;;;6.00;4.22;;;23.30;99.90;;;;;;5047177;28;20049;-74
2022/08/15 11:25:11;;;;;;;4.78;3.67;;;23.20;99.90;;;;;;5046820;28;20539;-76
2022/08/15 11:27:37;;;;;;;4.80;3.60;;;23.40;99.90;;;;;;5044080;28;20045;-74
2022/08/15 11:30:07;;;;;;;8.23;3.65;;;23.50;99.90;;;;;;5047253;28;20167;-75
2022/08/15 11:32:38;;;;;;;7.90;3.72;;;23.60;99.90;;;;;;5047198;28;20053;-74
2022/08/15 11:35:29;;;;;;;3.93;3.00;;;23.70;99.90;;;;;;5031337;28;20053;-74
2022/08/15 11:37:57;;;;;;;;;;;23.80;99.90;;;;;;5050317;28;20056;-74
2022/08/15 11:40:34;;;;;;;9.05;3.70;;;23.90;99.90;;;;;;5064978;28;20011;-74
2022/08/15 11:43:12;;;;;;;4.15;3.40;;;24.10;99.90;;;;;;5038696;28;20510;-74
2022/08/15 11:45:46;;;;;;;3.72;2.83;;;24.20;99.90;;;;;;5049767;28;20045;-74
2022/08/15 11:48:52;;;;;;;4.90;3.60;;;24.20;99.90;;;;;;5031748;28;21265;-75
2022/08/15 11:51:55;;;;;;;4.47;3.53;;;24.30;99.90;;;;;;5038796;28;20076;-75
2022/08/15 11:54:39;;;;;;;4.72;2.95;;;24.20;99.90;;;;;;5029565;28;20041;-75
2022/08/15 11:57:27;;;;;;;3.97;2.90;;;24.20;99.90;;;;;;5032070;28;20057;-74
2022/08/15 12:00:08;;;;;;;4.97;2.80;;;24.00;99.90;;;;;;5054908;28;20554;-74
2022/08/15 12:03:18;;;;;;;4.93;2.92;;;24.00;99.90;;;;;;5064525;28;20169;-74
2022/08/15 12:09:30;;;;;;;5.35;2.70;;;24.00;99.90;;;;;;5032993;28;20045;-75
2022/08/15 12:12:03;;;;;;;5.78;3.78;;;23.90;99.90;;;;;;5048826;28;20208;-74
2022/08/15 12:14:34;;;;;;;4.32;3.08;;;24.00;99.90;;;;;;5050763;28;20102;-74
2022/08/15 12:17:24;;;;;;;5.43;3.60;;;23.80;99.90;;;;;;5050112;28;20037;-74
2022/08/15 12:19:59;;;;;;;7.90;3.08;;;24.00;99.90;;;;;;5049016;28;20044;-74
2022/08/15 12:22:56;;;;;;;5.90;3.47;;;23.80;99.90;;;;;;5031348;28;20044;-74
2022/08/15 12:25:33;;;;;;;4.80;3.25;;;23.80;99.90;;;;;;5048821;28;20136;-74
2022/08/15 12:28:12;;;;;;;5.30;3.65;;;23.80;99.90;;;;;;5021947;28;20041;-74
2022/08/15 12:34:12;;;;;;;5.32;3.35;;;23.70;99.90;;;;;;5041290;28;20053;-74
2022/08/15 12:37:23;;;;;;;5.78;5.07;;;23.70;99.90;;;;;;5044495;28;20049;-74
2022/08/15 12:40:02;;;;;;;7.10;4.60;;;23.70;99.90;;;;;;5048745;28;21202;-74
2022/08/15 12:42:42;;;;;;;8.98;5.20;;;23.90;99.90;;;;;;5049532;28;20148;-74
2022/08/15 12:45:21;;;;;;;9.57;3.95;;;23.80;99.90;;;;;;5048252;28;20046;-74
2022/08/15 12:48:04;;;;;;;6.72;4.07;;;23.70;99.90;;;;;;5031379;28;20041;-74
2022/08/15 12:50:42;;;;;;;5.72;4.22;;;23.60;99.90;;;;;;5029892;28;20743;-74
2022/08/15 12:53:12;;;;;;;5.30;4.30;;;23.90;99.90;;;;;;5049477;28;20052;-75
2022/08/15 12:55:51;;;;;;;8.68;6.55;;;23.90;99.90;;;;;;5049054;28;20093;-74
2022/08/15 12:58:28;;;;;;;7.78;4.90;;;24.10;99.90;;;;;;5036215;28;20101;-75
2022/08/15 13:04:30;;;;;;;7.90;4.57;;;24.00;99.90;;;;;;5049620;28;20041;-75
2022/08/15 13:07:14;;;;;;;7.35;3.78;;;24.00;99.90;;;;;;5037987;28;20603;-74
2022/08/15 13:09:54;;;;;;;5.80;4.55;;;23.90;99.90;;;;;;5048872;28;20106;-74
2022/08/15 13:15:51;;;;;;;5.47;3.47;;;23.70;99.90;;;;;;5044930;28;20068;-74
2022/08/15 13:18:34;;;;;;;5.35;4.30;;;23.90;99.90;;;;;;5049393;28;20065;-74
2022/08/15 13:24:16;;;;;;;8.63;5.60;;;23.80;99.90;;;;;;5035229;28;20045;-74
2022/08/15 13:26:59;;;;;;;7.75;5.07;;;23.80;99.90;;;;;;5017830;28;20236;-74
2022/08/15 13:29:26;;;;;;;6.05;4.90;;;23.90;99.90;;;;;;5017659;28;20053;-74
2022/08/15 13:32:09;;;;;;;6.22;4.32;;;24.00;99.90;;;;;;5034057;28;20041;-74
2022/08/15 13:34:54;;;;;;;5.97;4.03;;;24.00;99.90;;;;;;5031571;28;20153;-75
2022/08/15 13:37:37;;;;;;;9.02;3.92;;;24.20;99.90;;;;;;5034430;28;20917;-73
2022/08/15 13:40:24;;;;;;;8.80;6.05;;;24.00;99.90;;;;;;5033494;28;20048;-74
2022/08/15 13:43:01;;;;;;;9.00;6.00;;;24.00;99.90;;;;;;5018480;28;20067;-75
2022/08/15 13:45:51;;;;;;;7.70;5.63;;;24.20;99.90;;;;;;4975933;28;20522;-75
2022/08/15 13:49:08;;;;;;;9.93;5.60;;;24.50;99.90;;;;;;4975739;28;20059;-74
2022/08/15 13:52:06;;;;;;;8.35;6.30;;;24.60;99.90;;;;;;4976800;28;20670;-74
2022/08/15 13:54:33;;;;;;;6.95;5.53;;;24.60;99.90;;;;;;4974009;28;20051;-75
2022/08/15 13:57:14;;;;;;;7.47;5.80;;;24.70;99.90;;;;;;4974201;28;20108;-75
2022/08/15 14:00:18;;;;;;;8.37;5.93;;;24.70;99.90;;;;;;4974459;28;20053;-75
2022/08/15 14:02:59;;;;;;;7.43;5.78;;;24.80;99.90;;;;;;4958246;28;21242;-74
2022/08/15 14:05:30;;;;;;;7.30;5.25;;;24.50;99.90;;;;;;4974067;28;20054;-74
2022/08/15 14:08:24;;;;;;;7.72;6.50;;;24.50;99.90;;;;;;4973648;28;20598;-74
2022/08/15 14:10:55;;;;;;;8.27;6.32;;;24.40;99.90;;;;;;4986302;28;20466;-75
2022/08/15 14:13:48;;;;;;;8.90;6.23;;;24.40;99.90;;;;;;5047185;28;20034;-74